Time;durP1;ratioP1;P1;durP2;ratioP2;P2;SDS_P1;SDS_P2;PMS_P1;PMS_P2;Temp;Humidity;BMP_temperature;BMP_pressure;BME280_temperature;BME280_humidity;BME280_pressure;Samples;Min_cycle;Max_cycle;Signal;HPM_P1;HPM_P2
2023/05/21 00:02:10;;;;;;;19.95;17.92;;;;;;;16.88;87.96;100096.03;5114066;28;20063;-74
2023/05/21 00:04:39;;;;;;;19.25;17.25;;;;;;;16.83;87.73;100081.50;5113650;28;20028;-75
2023/05/21 00:07:05;;;;;;;18.77;16.83;;;;;;;16.90;87.07;100102.06;5113745;28;20019;-75
2023/05/21 00:09:30;;;;;;;18.40;16.42;;;;;;;16.66;87.26;100061.53;5113258;28;20027;-75
2023/05/21 00:11:56;;;;;;;17.73;15.93;;;;;;;16.86;87.05;100100.56;5113775;28;20530;-74
2023/05/21 00:14:21;;;;;;;17.52;15.40;;;;;;;16.66;87.21;100078.16;5113316;28;20062;-75
2023/05/21 00:16:46;;;;;;;17.13;15.48;;;;;;;16.76;87.30;100074.94;5113527;28;20019;-75
2023/05/21 00:19:12;;;;;;;18.88;16.67;;;;;;;16.81;87.44;100097.41;5113467;28;20450;-75
2023/05/21 00:21:38;;;;;;;19.38;17.38;;;;;;;16.70;87.16;100087.53;5113195;28;20055;-75
2023/05/21 00:24:04;;;;;;;17.45;15.70;;;;;;;16.62;87.67;100070.56;5113088;28;20023;-75
2023/05/21 00:26:29;;;;;;;18.77;16.77;;;;;;;16.74;88.06;100092.63;5112986;28;20027;-75
2023/05/21 00:28:55;;;;;;;17.63;15.82;;;;;;;16.55;87.95;100070.09;5113201;28;20039;-74
2023/05/21 00:31:20;;;;;;;17.15;15.32;;;;;;;16.56;88.06;100068.31;5113052;28;20024;-75
2023/05/21 00:33:45;;;;;;;20.67;16.40;;;;;;;16.54;88.30;100068.44;5113256;28;20027;-75
2023/05/21 00:36:13;;;;;;;18.38;16.38;;;;;;;16.66;88.95;100100.97;5112959;28;20046;-75
2023/05/21 00:38:44;;;;;;;19.33;17.30;;;;;;;16.45;89.18;100069.03;5112717;28;20035;-75
2023/05/21 00:41:10;;;;;;;;;;;;;;;16.53;89.39;100089.56;5113493;28;20047;-74
2023/05/21 00:43:39;;;;;;;18.73;16.73;;;;;;;16.50;89.34;100084.50;5112877;28;20003;-74
2023/05/21 00:46:06;;;;;;;17.10;15.38;;;;;;;16.48;89.34;100074.09;5113058;28;20106;-74
2023/05/21 00:48:31;;;;;;;19.35;16.95;;;;;;;16.40;89.62;100061.44;5112628;28;20123;-74
2023/05/21 00:50:56;;;;;;;20.00;16.00;;;;;;;16.37;89.62;100068.66;5112695;28;20510;-74
2023/05/21 00:53:22;;;;;;;17.15;15.25;;;;;;;16.40;89.73;100069.31;5113073;28;20050;-74
2023/05/21 00:55:49;;;;;;;19.00;17.17;;;;;;;16.45;89.68;100079.53;5112909;28;20475;-74
2023/05/21 00:58:16;;;;;;;17.02;15.30;;;;;;;16.47;90.06;100090.78;5113066;28;20034;-74
2023/05/21 01:00:42;;;;;;;20.00;17.70;;;;;;;16.34;90.34;100068.84;5112121;28;20474;-74
2023/05/21 01:03:07;;;;;;;19.00;16.40;;;;;;;16.27;90.40;100060.53;5112650;28;20031;-74
2023/05/21 01:05:34;;;;;;;17.85;15.05;;;;;;;16.27;90.45;100068.41;5112362;28;20099;-75
2023/05/21 01:08:00;;;;;;;17.88;16.08;;;;;;;16.34;90.53;100082.84;5112627;28;20457;-74
2023/05/21 01:10:26;;;;;;;18.40;15.95;;;;;;;16.29;90.30;100055.16;5112529;28;20157;-75
2023/05/21 01:12:56;;;;;;;17.33;15.52;;;;;;;16.36;90.34;100091.50;5112517;28;20080;-75
2023/05/21 01:15:21;;;;;;;17.02;15.32;;;;;;;16.34;90.35;100080.22;5112362;28;20029;-75
2023/05/21 01:17:47;;;;;;;21.27;16.02;;;;;;;16.29;90.10;100078.81;5112846;28;20038;-75
2023/05/21 01:20:16;;;;;;;17.25;15.45;;;;;;;16.33;90.27;100088.22;5112391;28;20035;-75
2023/05/21 01:22:50;;;;;;;16.55;15.00;;;;;;;16.29;90.27;100076.19;5094552;28;20042;-75
2023/05/21 01:25:16;;;;;;;18.30;15.35;;;;;;;16.10;90.35;100040.59;5112583;28;20088;-75
2023/05/21 01:27:41;;;;;;;17.00;14.90;;;;;;;16.23;89.67;100066.09;5112063;28;20028;-74
2023/05/21 01:30:07;;;;;;;18.38;14.82;;;;;;;16.11;89.54;100044.03;5112232;28;20023;-75
2023/05/21 01:32:48;;;;;;;14.85;13.45;;;;;;;16.32;89.20;100063.72;5059403;28;20064;-75
2023/05/21 01:35:21;;;;;;;15.40;13.65;;;;;;;16.18;89.10;100035.69;5112513;28;20020;-75
2023/05/21 01:38:08;;;;;;;15.18;13.57;;;;;;;16.27;89.15;100057.06;5112163;28;20039;-74
2023/05/21 01:40:39;;;;;;;15.40;13.73;;;;;;;16.34;89.16;100063.59;5112162;28;20123;-75
2023/05/21 01:43:07;;;;;;;16.03;14.43;;;;;;;16.18;89.19;100022.53;5093963;28;20506;-75
2023/05/21 01:45:38;;;;;;;19.90;13.85;;;;;;;16.25;89.52;100032.66;5112243;28;20265;-75
2023/05/21 01:48:05;;;;;;;15.65;13.95;;;;;;;16.41;89.63;100062.28;5112068;28;20110;-75
2023/05/21 01:50:32;;;;;;;17.17;14.32;;;;;;;16.41;90.17;100057.84;5111906;28;20030;-75
2023/05/21 01:52:59;;;;;;;18.13;14.20;;;;;;;16.43;90.28;100058.63;5112144;28;20077;-75
2023/05/21 01:55:26;;;;;;;16.70;14.32;;;;;;;16.27;90.46;100015.00;5111744;28;20103;-75
2023/05/21 01:57:54;;;;;;;16.05;14.35;;;;;;;16.45;90.45;100050.63;5111921;28;20030;-75
2023/05/21 02:00:24;;;;;;;15.35;13.73;;;;;;;16.34;90.42;100024.16;5112481;28;20038;-75
2023/05/21 02:02:50;;;;;;;16.73;13.73;;;;;;;16.35;90.10;100016.22;5112102;28;20475;-75
2023/05/21 02:05:16;;;;;;;15.98;13.30;;;;;;;16.45;89.92;100040.94;5059610;28;20035;-75
2023/05/21 02:07:42;;;;;;;17.15;13.15;;;;;;;16.40;89.46;100022.00;5111737;28;20015;-75
2023/05/21 02:10:08;;;;;;;14.85;13.35;;;;;;;16.40;89.06;100026.41;5111834;28;20027;-74
2023/05/21 02:12:34;;;;;;;15.20;13.65;;;;;;;16.56;88.86;100040.25;5058949;28;20031;-74
2023/05/21 02:14:59;;;;;;;15.45;13.85;;;;;;;16.53;88.71;100034.34;5115933;28;20445;-74
2023/05/21 02:17:25;;;;;;;14.90;13.18;;;;;;;16.51;88.40;100038.84;5115714;28;20471;-74
2023/05/21 02:19:51;;;;;;;18.52;12.65;;;;;;;16.33;88.60;100009.34;5115863;28;20387;-75
2023/05/21 02:22:16;;;;;;;15.13;12.43;;;;;;;16.52;88.44;100038.78;5115802;28;20114;-75
2023/05/21 02:24:41;;;;;;;14.80;13.25;;;;;;;16.48;88.53;100025.94;5115688;28;20024;-74
2023/05/21 02:27:09;;;;;;;14.95;13.48;;;;;;;16.57;88.32;100041.09;5115830;28;20020;-75
2023/05/21 02:29:35;;;;;;;14.88;13.27;;;;;;;16.41;88.15;100017.59;5115241;28;20391;-75
2023/05/21 02:32:00;;;;;;;14.70;13.07;;;;;;;16.46;87.83;100031.25;5115704;28;20027;-74
2023/05/21 02:34:25;;;;;;;16.35;12.57;;;;;;;16.39;87.93;100009.81;5115606;28;20410;-75
2023/05/21 02:36:51;;;;;;;13.90;12.50;;;;;;;16.41;87.92;100015.78;5115401;28;20387;-74
2023/05/21 02:39:18;;;;;;;14.15;12.75;;;;;;;16.40;88.12;100011.47;5115380;28;20367;-75
2023/05/21 02:41:44;;;;;;;14.68;13.05;;;;;;;16.45;88.04;100022.53;5115258;28;20023;-74
2023/05/21 02:44:10;;;;;;;14.52;13.02;;;;;;;16.49;88.09;100023.19;5115492;28;20459;-75
2023/05/21 02:46:35;;;;;;;15.50;13.90;;;;;;;16.41;88.48;100013.16;5115176;28;20058;-75
2023/05/21 02:49:00;;;;;;;16.33;14.13;;;;;;;16.40;88.48;100010.66;5115224;28;20486;-74
2023/05/21 02:51:26;;;;;;;15.38;13.85;;;;;;;16.41;88.63;100021.06;5115202;28;20028;-75
2023/05/21 02:53:51;;;;;;;14.90;13.27;;;;;;;16.28;88.85;99999.13;5114811;28;20020;-75
2023/05/21 02:56:17;;;;;;;14.63;13.23;;;;;;;16.41;88.61;100017.59;5115290;28;20610;-75
2023/05/21 02:58:42;;;;;;;14.52;12.95;;;;;;;16.36;88.46;100011.78;5114925;28;20031;-74
2023/05/21 03:01:08;;;;;;;16.73;13.10;;;;;;;16.39;88.56;100019.44;5115229;28;20027;-75
2023/05/21 03:03:33;;;;;;;14.40;12.90;;;;;;;16.21;88.45;99987.31;5114815;28;20031;-75
2023/05/21 03:05:59;;;;;;;14.32;12.82;;;;;;;16.17;88.24;99973.53;5114925;28;20034;-74
2023/05/21 03:08:25;;;;;;;14.10;12.63;;;;;;;16.23;88.17;99990.72;5114732;28;20031;-74
2023/05/21 03:10:50;;;;;;;14.27;12.68;;;;;;;16.28;88.02;99993.88;5114753;28;20080;-75
2023/05/21 03:13:16;;;;;;;16.17;12.90;;;;;;;16.36;88.10;100019.66;5114819;28;20416;-75
2023/05/21 03:15:42;;;;;;;17.48;12.57;;;;;;;16.21;87.59;99985.53;5114682;28;20028;-75
2023/05/21 03:18:08;;;;;;;13.95;12.02;;;;;;;16.37;87.62;100005.56;5114790;28;20114;-75
2023/05/21 03:20:33;;;;;;;15.02;12.95;;;;;;;16.20;87.50;99978.59;5114422;28;20020;-75
2023/05/21 03:22:59;;;;;;;14.10;12.60;;;;;;;16.23;86.98;99990.72;5114418;28;20031;-75
2023/05/21 03:25:24;;;;;;;14.13;12.70;;;;;;;16.36;87.40;100017.03;5114403;28;20031;-75
2023/05/21 03:27:51;;;;;;;14.30;12.82;;;;;;;16.23;87.07;99985.44;5114409;28;20088;-75
2023/05/21 03:30:16;;;;;;;13.07;11.75;;;;;;;16.43;86.94;100019.19;5114576;28;20378;-74
2023/05/21 03:32:43;;;;;;;13.98;12.02;;;;;;;16.35;86.65;99997.81;5114066;28;20115;-74
2023/05/21 03:35:09;;;;;;;14.07;11.85;;;;;;;16.42;86.52;100006.13;5114388;28;20020;-75
2023/05/21 03:37:34;;;;;;;14.30;12.77;;;;;;;16.39;86.37;99999.28;5114059;28;20027;-74
2023/05/21 03:39:59;;;;;;;14.57;11.27;;;;;;;16.36;86.03;99996.84;5114174;28;20046;-75
2023/05/21 03:42:25;;;;;;;14.95;12.57;;;;;;;16.52;86.17;100009.84;5114343;28;20075;-74
2023/05/21 03:44:50;;;;;;;14.02;12.70;;;;;;;16.54;85.70;100012.38;5114016;28;20106;-74
2023/05/21 03:47:16;;;;;;;13.85;12.18;;;;;;;16.48;85.73;99995.22;5114545;28;20038;-74
2023/05/21 03:49:41;;;;;;;13.02;11.70;;;;;;;16.54;85.79;100007.94;5113835;28;20353;-75
2023/05/21 03:52:06;;;;;;;13.32;12.00;;;;;;;16.59;85.45;100029.53;5113988;28;20019;-74
2023/05/21 03:54:31;;;;;;;14.65;12.55;;;;;;;16.41;85.66;99984.25;5113789;28;20070;-74
2023/05/21 03:56:57;;;;;;;12.95;11.70;;;;;;;16.55;85.39;100014.88;5114111;28;20143;-75
2023/05/21 03:59:22;;;;;;;15.52;12.55;;;;;;;16.74;85.42;100027.72;5114006;28;20554;-75
2023/05/21 04:01:47;;;;;;;15.35;12.85;;;;;;;16.83;85.36;100039.41;5113631;28;20023;-75
2023/05/21 04:04:13;;;;;;;15.02;13.48;;;;;;;16.79;85.07;100007.19;5113766;28;20130;-74
2023/05/21 04:06:41;;;;;;;15.25;13.25;;;;;;;17.24;83.82;100028.75;5113706;28;20387;-75
2023/05/21 04:09:06;;;;;;;17.35;13.40;;;;;;;17.78;81.45;100017.13;5113769;28;20020;-74
2023/05/21 04:11:32;;;;;;;13.25;11.57;;;;;;;18.28;79.35;100029.31;5113760;28;20493;-75
2023/05/21 04:13:57;;;;;;;15.88;14.18;;;;;;;18.57;78.15;100036.91;5113428;28;20044;-75
2023/05/21 04:16:23;;;;;;;29.48;25.88;;;;;;;18.53;78.58;100033.66;5113465;28;20490;-74
2023/05/21 04:18:48;;;;;;;18.42;16.60;;;;;;;18.46;78.32;100035.06;5113342;28;20023;-74
2023/05/21 04:21:14;;;;;;;14.45;12.98;;;;;;;18.24;78.34;100013.84;5113658;28;20023;-75
2023/05/21 04:23:39;;;;;;;15.00;13.35;;;;;;;18.39;78.51;100041.75;5113281;28;20068;-75
2023/05/21 04:26:05;;;;;;;16.65;14.65;;;;;;;18.51;77.61;100029.47;5113336;28;20030;-75
2023/05/21 04:28:30;;;;;;;12.93;11.63;;;;;;;18.82;76.20;100010.41;5113205;28;20028;-74
2023/05/21 04:30:55;;;;;;;13.20;11.90;;;;;;;19.65;73.90;100047.19;5113028;28;20028;-75
2023/05/21 04:33:24;;;;;;;14.70;12.25;;;;;;;20.31;71.79;100019.94;5094934;28;20024;-75
2023/05/21 04:35:50;;;;;;;14.88;12.90;;;;;;;20.56;70.28;100013.53;5112165;28;20026;-75
2023/05/21 04:38:18;;;;;;;12.50;11.20;;;;;;;20.53;70.09;100033.16;5113341;28;20379;-75
2023/05/21 04:40:54;;;;;;;13.38;12.07;;;;;;;20.08;71.21;100032.41;5112979;28;20020;-74
2023/05/21 04:43:24;;;;;;;14.80;12.15;;;;;;;19.94;72.05;100044.09;5113099;28;20427;-75
2023/05/21 04:45:50;;;;;;;14.85;13.07;;;;;;;19.90;72.39;100032.06;5112821;28;20028;-74
2023/05/21 04:48:16;;;;;;;14.15;11.63;;;;;;;20.06;71.88;100011.38;5113153;28;20092;-75
2023/05/21 04:50:42;;;;;;;12.57;11.27;;;;;;;20.36;70.41;100023.91;5112741;28;20467;-75
2023/05/21 04:53:07;;;;;;;12.70;11.48;;;;;;;21.10;68.16;100031.91;5113031;28;20106;-75
2023/05/21 04:55:35;;;;;;;12.18;10.98;;;;;;;21.73;66.25;100031.03;5112965;28;20020;-75
2023/05/21 04:58:00;;;;;;;12.10;10.90;;;;;;;21.54;66.06;100013.22;5112755;28;20055;-74
2023/05/21 05:00:26;;;;;;;13.45;12.05;;;;;;;21.30;66.48;100027.56;5112787;28;20051;-75
2023/05/21 05:02:51;;;;;;;12.52;11.23;;;;;;;20.92;67.63;100026.34;5112457;28;20114;-74
2023/05/21 05:05:17;;;;;;;12.38;11.07;;;;;;;20.54;68.71;100026.06;5112631;28;20107;-75
2023/05/21 05:07:43;;;;;;;13.07;11.13;;;;;;;20.39;69.36;100031.63;5112320;28;20027;-75
2023/05/21 05:10:08;;;;;;;12.18;11.07;;;;;;;20.34;69.89;100009.97;5112472;28;20028;-74
2023/05/21 05:12:33;;;;;;;12.70;11.48;;;;;;;20.56;68.98;100011.75;5112677;28;20031;-75
2023/05/21 05:14:59;;;;;;;11.57;10.25;;;;;;;21.25;67.17;100031.59;5112221;28;20055;-75
2023/05/21 05:17:24;;;;;;;12.60;11.20;;;;;;;22.04;65.94;100027.38;5112447;28;20080;-75
2023/05/21 05:19:50;;;;;;;12.45;11.27;;;;;;;22.41;64.18;100022.28;5112150;28;20035;-74
2023/05/21 05:22:15;;;;;;;12.15;11.07;;;;;;;22.28;63.75;100019.03;5112921;28;20024;-75
2023/05/21 05:24:40;;;;;;;12.55;11.35;;;;;;;21.98;64.88;100006.69;5112307;28;20152;-75
2023/05/21 05:27:06;;;;;;;12.98;10.40;;;;;;;21.73;65.05;100010.66;5112412;28;20024;-75
2023/05/21 05:29:31;;;;;;;11.45;10.02;;;;;;;21.60;65.39;100008.22;5112260;28;20034;-75
2023/05/21 05:31:56;;;;;;;10.75;9.50;;;;;;;21.93;64.70;100020.34;5112126;28;20020;-75
2023/05/21 05:34:22;;;;;;;15.27;10.48;;;;;;;22.48;63.88;100001.34;5112204;28;20028;-75
2023/05/21 05:36:47;;;;;;;10.18;9.05;;;;;;;23.23;60.86;99997.09;5112234;28;20421;-75
2023/05/21 05:39:12;;;;;;;11.52;10.32;;;;;;;23.89;59.30;100009.44;5112332;28;20104;-75
2023/05/21 05:41:38;;;;;;;12.23;9.35;;;;;;;24.12;58.41;100009.88;5112054;28;20425;-75
2023/05/21 05:44:03;;;;;;;12.20;11.10;;;;;;;23.62;59.64;99999.59;5076186;28;20089;-75
2023/05/21 05:46:28;;;;;;;10.88;9.88;;;;;;;23.52;59.41;100015.59;5112430;28;20023;-75
2023/05/21 05:48:54;;;;;;;11.80;10.35;;;;;;;23.42;60.22;100006.81;5115839;28;20031;-75
2023/05/21 05:51:19;;;;;;;10.73;9.73;;;;;;;23.39;60.54;100017.75;5116181;28;20032;-75
2023/05/21 05:53:45;;;;;;;12.65;9.57;;;;;;;23.58;59.17;100001.72;5116200;28;20024;-75
2023/05/21 05:56:10;;;;;;;15.48;10.77;;;;;;;24.15;58.39;100002.44;5116339;28;20023;-75
2023/05/21 05:58:35;;;;;;;12.02;10.35;;;;;;;24.38;57.42;100007.34;5116261;28;20047;-75
2023/05/21 06:01:00;;;;;;;14.63;9.98;;;;;;;24.61;57.71;100026.38;5115925;28;20055;-75
2023/05/21 06:03:27;;;;;;;10.93;9.68;;;;;;;24.32;57.66;100027.41;5116034;28;20050;-75
2023/05/21 06:05:52;;;;;;;10.23;9.23;;;;;;;24.26;58.45;100000.53;5115970;28;20038;-75
2023/05/21 06:08:18;;;;;;;12.40;11.20;;;;;;;24.55;57.60;100006.50;5116107;28;20664;-75
2023/05/21 06:10:43;;;;;;;10.40;8.98;;;;;;;24.93;57.21;100012.47;5116107;28;20035;-75
2023/05/21 06:13:08;;;;;;;10.27;9.15;;;;;;;25.59;55.43;99974.59;5115811;28;20371;-75
2023/05/21 06:15:34;;;;;;;10.35;9.30;;;;;;;26.32;53.76;99984.66;5115912;28;20023;-75
2023/05/21 06:17:59;;;;;;;10.13;9.13;;;;;;;26.91;53.44;100007.75;5115594;28;20112;-75
2023/05/21 06:20:25;;;;;;;10.75;9.68;;;;;;;27.21;52.29;100012.41;5116141;28;20144;-75
2023/05/21 06:22:50;;;;;;;10.27;9.07;;;;;;;26.98;52.24;100000.72;5115712;28;20463;-75
2023/05/21 06:25:15;;;;;;;10.35;9.32;;;;;;;26.80;52.97;100001.75;5115804;28;20407;-75
2023/05/21 06:27:41;;;;;;;10.32;9.23;;;;;;;26.85;52.99;99999.41;5115589;28;20076;-75
2023/05/21 06:30:07;;;;;;;8.90;8.10;;;;;;;27.58;52.85;99994.94;5115559;28;20028;-76
2023/05/21 06:32:32;;;;;;;9.40;8.43;;;;;;;28.89;49.31;100005.72;5115451;28;20028;-75
2023/05/21 06:34:58;;;;;;;10.63;9.43;;;;;;;29.87;46.99;100006.53;5115426;28;20560;-76
2023/05/21 06:37:23;;;;;;;9.10;8.15;;;;;;;30.24;46.54;99984.88;5115633;28;20023;-76
2023/05/21 06:39:48;;;;;;;10.18;9.18;;;;;;;30.83;45.52;99988.34;5115214;28;20395;-76
2023/05/21 06:42:14;;;;;;;9.60;8.70;;;;;;;31.37;44.30;99976.97;5115555;28;20543;-76
2023/05/21 06:44:39;;;;;;;9.32;8.38;;;;;;;31.44;44.68;100000.19;5115301;28;20053;-76
2023/05/21 06:47:05;;;;;;;10.60;9.57;;;;;;;31.75;44.07;100004.28;5115045;28;20027;-76
2023/05/21 06:49:31;;;;;;;10.00;9.00;;;;;;;31.75;43.82;99988.94;5115131;28;20370;-76
2023/05/21 06:51:56;;;;;;;10.48;9.38;;;;;;;32.14;44.29;99992.81;5115078;28;20031;-76
2023/05/21 06:54:21;;;;;;;10.48;9.32;;;;;;;32.72;42.65;99976.97;5115243;28;20517;-76
2023/05/21 06:56:47;;;;;;;9.43;8.38;;;;;;;32.61;42.32;99977.56;5114884;28;20459;-76
2023/05/21 06:59:12;;;;;;;9.75;8.73;;;;;;;32.95;42.41;99987.38;5114519;28;20019;-76
2023/05/21 07:01:41;;;;;;;9.98;8.57;;;;;;;32.32;42.76;99970.69;5114846;28;20114;-76
2023/05/21 07:04:06;;;;;;;9.00;8.20;;;;;;;32.75;42.79;99984.66;5114615;28;20015;-76
2023/05/21 07:06:32;;;;;;;10.68;8.50;;;;;;;32.69;42.36;99976.53;5115016;28;20027;-76
2023/05/21 07:08:57;;;;;;;9.35;8.23;;;;;;;33.24;42.21;99972.56;5114596;28;20022;-76
2023/05/21 07:11:27;;;;;;;9.35;8.20;;;;;;;33.99;41.52;99989.16;5108200;28;20035;-76
2023/05/21 07:13:53;;;;;;;9.75;8.77;;;;;;;34.15;41.51;99984.31;5114424;28;20048;-76
2023/05/21 07:16:18;;;;;;;9.38;8.48;;;;;;;34.81;40.75;99974.88;5114671;28;20520;-76
2023/05/21 07:18:44;;;;;;;9.50;8.70;;;;;;;34.43;40.95;99978.50;5114536;28;20032;-76
2023/05/21 07:21:09;;;;;;;9.25;8.45;;;;;;;34.26;39.87;99951.19;5114838;28;20463;-76
2023/05/21 07:23:35;;;;;;;9.15;8.35;;;;;;;34.60;40.10;99949.06;5114624;28;20427;-76
2023/05/21 07:26:00;;;;;;;14.73;13.18;;;;;;;34.90;39.63;99971.69;5111132;28;20036;-76
2023/05/21 07:28:25;;;;;;;9.48;8.55;;;;;;;34.81;40.07;99983.00;5093886;28;20112;-76
2023/05/21 07:30:51;;;;;;;8.60;7.80;;;;;;;35.17;39.83;99968.75;5093689;28;20054;-76
2023/05/21 07:33:18;;;;;;;9.68;8.68;;;;;;;35.35;39.77;99968.72;5094182;28;20082;-76
2023/05/21 07:35:43;;;;;;;10.07;8.38;;;;;;;35.46;39.67;99980.72;5097422;28;20039;-76
2023/05/21 07:38:09;;;;;;;9.45;8.55;;;;;;;35.21;39.44;99983.47;5114066;28;20028;-76
2023/05/21 07:40:34;;;;;;;9.50;8.60;;;;;;;35.31;38.98;99983.78;5113985;28;20027;-76
2023/05/21 07:42:59;;;;;;;9.75;8.85;;;;;;;34.97;40.10;99977.88;5113655;28;20106;-76
2023/05/21 07:45:25;;;;;;;9.30;8.40;;;;;;;34.47;40.23;99968.88;5113964;28;20051;-76
2023/05/21 07:47:50;;;;;;;10.15;9.02;;;;;;;34.43;40.64;99979.34;5113970;28;20024;-76
2023/05/21 07:50:15;;;;;;;9.38;8.55;;;;;;;34.04;40.58;99983.09;5095605;28;20043;-76
2023/05/21 07:52:41;;;;;;;10.05;9.15;;;;;;;34.19;41.11;99990.94;5114134;28;20028;-76
2023/05/21 07:55:07;;;;;;;11.35;10.23;;;;;;;33.81;41.51;99980.91;5113730;28;20036;-76
2023/05/21 07:57:34;;;;;;;12.25;9.75;;;;;;;33.92;41.12;99960.47;5113890;28;20145;-76
2023/05/21 07:59:59;;;;;;;9.77;8.90;;;;;;;33.01;41.74;99977.59;5113582;28;20036;-76
2023/05/21 08:02:25;;;;;;;9.90;8.55;;;;;;;32.19;42.77;99966.09;5113809;28;20027;-76
2023/05/21 08:04:51;;;;;;;9.45;8.45;;;;;;;32.04;43.14;99974.34;5113510;28;20028;-76
2023/05/21 08:07:18;;;;;;;8.80;8.05;;;;;;;32.04;43.23;99987.84;5113924;28;20031;-78
2023/05/21 08:09:44;;;;;;;8.18;7.43;;;;;;;31.21;43.94;99957.38;5105283;28;20024;-78
2023/05/21 08:12:13;;;;;;;9.85;8.35;;;;;;;30.25;46.16;99969.59;5112269;28;20032;-78
2023/05/21 08:14:38;;;;;;;8.10;7.35;;;;;;;29.73;47.33;99970.66;5113296;28;20076;-77
2023/05/21 08:17:03;;;;;;;9.05;7.68;;;;;;;29.01;48.10;99956.03;5113339;28;20027;-78
2023/05/21 08:19:29;;;;;;;8.25;7.45;;;;;;;28.57;48.92;99967.47;5114063;28;20059;-77
2023/05/21 08:21:55;;;;;;;9.20;8.30;;;;;;;28.08;49.36;99983.84;5113580;28;20020;-77
2023/05/21 08:24:20;;;;;;;8.90;8.10;;;;;;;27.64;51.21;99972.81;5113817;28;20384;-78
2023/05/21 08:26:48;;;;;;;9.57;7.55;;;;;;;26.98;50.75;99969.50;5113665;28;20023;-78
2023/05/21 08:29:13;;;;;;;9.27;8.07;;;;;;;26.70;51.72;99957.50;5113563;28;20027;-78
2023/05/21 08:31:39;;;;;;;11.15;7.88;;;;;;;26.46;52.61;99964.47;5113706;28;20083;-78
2023/05/21 08:34:04;;;;;;;7.82;7.03;;;;;;;26.02;53.08;99959.41;5113273;28;20031;-78
2023/05/21 08:36:30;;;;;;;9.93;7.88;;;;;;;26.00;54.16;99969.44;5113372;28;20028;-76
2023/05/21 08:38:55;;;;;;;7.70;7.00;;;;;;;26.00;53.37;99987.25;5112848;28;20031;-76
2023/05/21 08:41:22;;;;;;;8.25;6.88;;;;;;;25.67;53.53;99967.63;5113130;28;20024;-76
2023/05/21 08:43:54;;;;;;;9.68;6.50;;;;;;;25.35;53.50;99955.78;5112962;28;20031;-76
2023/05/21 08:46:23;;;;;;;7.55;6.53;;;;;;;25.26;54.30;99954.09;5113200;28;20016;-76
2023/05/21 08:48:53;;;;;;;7.45;6.05;;;;;;;25.13;53.56;99946.53;5112895;28;20036;-76
2023/05/21 08:51:20;;;;;;;7.43;6.72;;;;;;;25.11;55.01;99952.03;5112886;28;20030;-76
2023/05/21 08:53:45;;;;;;;7.15;5.90;;;;;;;25.09;53.89;99955.81;5113052;28;20113;-76
2023/05/21 08:56:11;;;;;;;7.80;6.10;;;;;;;25.21;54.86;99967.06;5112705;28;20041;-76
2023/05/21 08:58:41;;;;;;;8.98;6.47;;;;;;;25.22;55.21;99958.91;5112766;28;20031;-76
2023/05/21 09:01:07;;;;;;;12.68;6.57;;;;;;;25.20;54.50;99958.22;5112743;28;20471;-76
2023/05/21 09:03:33;;;;;;;10.13;7.00;;;;;;;25.00;54.76;99952.25;5112695;28;20107;-76
2023/05/21 09:05:59;;;;;;;8.35;6.00;;;;;;;25.19;56.29;99982.38;5112539;28;20616;-76
2023/05/21 09:08:31;;;;;;;8.90;6.28;;;;;;;25.17;55.89;99955.03;5112569;28;20028;-76
2023/05/21 09:10:56;;;;;;;13.05;6.43;;;;;;;25.25;54.98;99960.41;5112299;28;20031;-76
2023/05/21 09:13:24;;;;;;;8.23;5.47;;;;;;;25.29;54.64;99951.13;5112598;28;20051;-76
2023/05/21 09:15:50;;;;;;;10.48;5.95;;;;;;;25.49;54.12;99992.53;5112650;28;20469;-76
2023/05/21 09:18:16;;;;;;;6.45;5.68;;;;;;;25.14;54.24;99953.50;5112513;28;20030;-76
2023/05/21 09:20:42;;;;;;;6.53;5.43;;;;;;;25.28;54.36;99973.41;5112473;28;20020;-76
2023/05/21 09:23:16;;;;;;;7.95;5.80;;;;;;;25.26;53.81;99984.25;5111995;28;20539;-76
2023/05/21 09:25:47;;;;;;;5.50;5.00;;;;;;;25.15;54.16;99955.19;5112393;28;20614;-76
2023/05/21 09:28:14;;;;;;;7.00;5.47;;;;;;;25.02;55.01;99954.75;5112188;28;20031;-76
2023/05/21 09:30:47;;;;;;;6.10;5.50;;;;;;;25.12;54.66;99951.03;5112401;28;20028;-76
2023/05/21 09:33:24;;;;;;;6.20;5.60;;;;;;;25.31;53.98;99965.94;5111283;28;20032;-76
2023/05/21 09:35:50;;;;;;;6.05;5.25;;;;;;;25.27;54.69;99939.75;5112185;28;20068;-76
2023/05/21 09:38:15;;;;;;;7.03;5.00;;;;;;;25.30;53.16;99980.28;5111701;28;20585;-76
2023/05/21 09:40:47;;;;;;;8.25;5.60;;;;;;;25.26;53.36;99964.75;5112522;28;20499;-76
2023/05/21 09:43:14;;;;;;;7.68;5.65;;;;;;;24.99;53.37;99950.59;5111863;28;20612;-75
2023/05/21 09:45:53;;;;;;;7.15;5.07;;;;;;;25.08;53.88;99973.66;5112126;28;20051;-75
2023/05/21 09:48:36;;;;;;;7.95;5.10;;;;;;;24.94;54.27;99946.69;5112067;28;20027;-76
2023/05/21 09:51:12;;;;;;;6.43;4.88;;;;;;;24.89;53.40;99963.16;5111866;28;20023;-76
2023/05/21 09:53:54;;;;;;;10.20;5.55;;;;;;;24.76;53.58;99934.25;5112264;28;20130;-76
2023/05/21 09:56:23;;;;;;;9.07;5.60;;;;;;;24.94;53.40;99963.50;5112190;28;20073;-76
2023/05/21 09:58:51;;;;;;;6.57;5.93;;;;;;;24.95;53.70;99959.03;5112104;28;20081;-76
2023/05/21 10:01:18;;;;;;;6.05;5.45;;;;;;;24.99;54.56;99950.59;5112022;28;20035;-76
2023/05/21 10:03:50;;;;;;;6.03;5.30;;;;;;;24.95;53.98;99946.56;5112425;28;20448;-76
2023/05/21 10:06:17;;;;;;;7.65;5.13;;;;;;;24.97;54.76;99933.06;5111853;28;20471;-76
2023/05/21 10:08:47;;;;;;;8.07;5.68;;;;;;;25.21;54.34;99945.75;5111979;28;20027;-76
2023/05/21 10:11:14;;;;;;;6.57;4.95;;;;;;;25.21;53.08;99945.75;5111707;28;20027;-76
2023/05/21 10:13:45;;;;;;;8.05;4.93;;;;;;;25.17;51.95;99947.88;5111922;28;20071;-76
2023/05/21 10:16:11;;;;;;;6.13;4.88;;;;;;;25.01;52.12;99921.09;5111918;28;20026;-76
2023/05/21 10:18:38;;;;;;;7.18;5.20;;;;;;;25.08;51.35;99939.00;5112158;28;20479;-75
2023/05/21 10:21:05;;;;;;;6.47;4.88;;;;;;;25.04;51.79;99920.78;5111817;28;20134;-75
2023/05/21 10:23:33;;;;;;;8.90;5.03;;;;;;;24.98;51.08;99913.41;5111840;28;20105;-76
2023/05/21 10:25:59;;;;;;;7.15;5.30;;;;;;;25.18;50.50;99938.88;5111557;28;20015;-76
2023/05/21 10:28:24;;;;;;;5.35;4.80;;;;;;;25.05;49.61;99925.13;5111962;28;20040;-76
2023/05/21 10:30:52;;;;;;;6.40;4.90;;;;;;;25.08;49.75;99946.13;5111830;28;20024;-76
2023/05/21 10:33:19;;;;;;;6.10;4.53;;;;;;;24.94;50.60;99918.22;5111697;28;20024;-75
2023/05/21 10:35:46;;;;;;;5.88;4.18;;;;;;;25.11;50.80;99941.34;5115255;28;20027;-76
2023/05/21 10:38:12;;;;;;;7.35;4.60;;;;;;;24.87;50.52;99898.53;5115261;28;20050;-76
2023/05/21 10:40:37;;;;;;;6.68;4.32;;;;;;;25.10;51.07;99909.50;5115444;28;20463;-76
2023/05/21 10:43:24;;;;;;;8.35;5.05;;;;;;;25.29;50.38;99927.13;5115239;28;20024;-76
2023/05/21 10:46:17;;;;;;;6.28;4.78;;;;;;;25.39;50.41;99919.81;5115848;28;20471;-75
2023/05/21 10:49:04;;;;;;;6.63;4.32;;;;;;;25.30;49.33;99931.44;5115178;28;20122;-75
2023/05/21 10:52:07;;;;;;;6.22;4.93;;;;;;;25.39;50.42;99912.66;5115395;28;20498;-76
2023/05/21 10:54:56;;;;;;;5.38;4.45;;;;;;;25.28;49.12;99898.75;5115337;28;20028;-76
2023/05/21 10:57:45;;;;;;;6.38;5.03;;;;;;;25.31;49.52;99919.78;5115189;28;20020;-76
2023/05/21 11:00:14;;;;;;;6.55;4.80;;;;;;;25.23;48.18;99904.56;5115094;28;20027;-76
2023/05/21 11:02:41;;;;;;;5.70;4.95;;;;;;;25.15;49.44;99901.88;5115091;28;20110;-76
2023/05/21 11:05:06;;;;;;;5.03;4.53;;;;;;;25.17;48.53;99894.56;5114816;28;20055;-76
2023/05/21 11:07:57;;;;;;;7.20;5.30;;;;;;;25.37;49.59;99906.66;5114884;28;20074;-76
2023/05/21 11:10:44;;;;;;;8.68;5.18;;;;;;;25.51;49.06;99905.19;5114939;28;20023;-76
2023/05/21 11:13:15;;;;;;;7.40;4.70;;;;;;;25.46;48.37;99891.53;5114656;28;20052;-76
2023/05/21 11:16:03;;;;;;;6.28;5.68;;;;;;;25.56;49.03;99912.72;5114940;28;20030;-76
2023/05/21 11:18:35;;;;;;;5.22;4.60;;;;;;;25.62;49.90;99910.25;5114964;28;20036;-76
2023/05/21 11:21:04;;;;;;;5.97;4.20;;;;;;;25.58;50.55;99892.06;5114630;28;20088;-76